createdAt,value
2018-03-21T00:02:04.733Z,100773.45
2018-03-21T00:04:33.866Z,100776.19
2018-03-21T00:07:03.011Z,100780.51
2018-03-21T00:09:32.224Z,100786.91
2018-03-21T00:12:01.639Z,100788.25
2018-03-21T00:14:31.509Z,100787.02
2018-03-21T00:17:00.694Z,100795.67
2018-03-21T00:19:29.845Z,100800.05
2018-03-21T00:21:58.971Z,100796.84
2018-03-21T00:24:28.224Z,100793.80
2018-03-21T00:26:57.405Z,100810.37
2018-03-21T00:29:26.608Z,100821.28
2018-03-21T00:31:55.877Z,100821.06
2018-03-21T00:34:25.106Z,100829.33
2018-03-21T00:36:54.300Z,100825.42
2018-03-21T00:39:23.664Z,100835.33
2018-03-21T00:41:52.869Z,100830.48
2018-03-21T00:44:22.064Z,100836.14
2018-03-21T00:46:51.418Z,100836.71
2018-03-21T00:49:20.623Z,100840.67
2018-03-21T00:51:49.821Z,100843.59
2018-03-21T00:54:19.087Z,100839.95
2018-03-21T00:56:48.305Z,100845.72
2018-03-21T00:59:24.022Z,100846.78
2018-03-21T01:01:53.227Z,100849.06
2018-03-21T01:04:22.508Z,100855.06
2018-03-21T01:06:51.717Z,100853.28
2018-03-21T01:09:21.002Z,100852.38
2018-03-21T01:11:50.261Z,100856.65
2018-03-21T01:14:19.464Z,100859.70
2018-03-21T01:16:48.683Z,100867.08
2018-03-21T01:19:17.947Z,100867.95
2018-03-21T01:21:47.491Z,100871.33
2018-03-21T01:24:16.775Z,100879.77
2018-03-21T01:26:46.080Z,100884.17
2018-03-21T01:29:15.274Z,100889.69
2018-03-21T01:31:44.547Z,100891.56
2018-03-21T01:34:13.897Z,100894.87
2018-03-21T01:36:42.988Z,100898.42
2018-03-21T01:39:12.180Z,100904.98
2018-03-21T01:41:41.465Z,100895.97
2018-03-21T01:44:10.662Z,100901.04
2018-03-21T01:46:39.900Z,100910.89
2018-03-21T01:49:09.363Z,100908.45
2018-03-21T01:51:38.528Z,100909.89
2018-03-21T01:54:07.736Z,100915.78
2018-03-21T01:56:37.011Z,100920.06
2018-03-21T01:59:06.236Z,100918.34
2018-03-21T02:01:36.054Z,100921.77
2018-03-21T02:04:05.492Z,100927.61
2018-03-21T02:06:34.690Z,100935.39
2018-03-21T02:09:03.496Z,100933.95
2018-03-21T02:11:32.772Z,100936.42
2018-03-21T02:14:01.981Z,100938.00
2018-03-21T02:16:31.182Z,100940.90
2018-03-21T02:19:00.660Z,100935.25
2018-03-21T02:21:29.863Z,100938.84
2018-03-21T02:23:59.045Z,100943.51
2018-03-21T02:26:28.314Z,100944.78
2018-03-21T02:28:57.499Z,100944.12
2018-03-21T02:31:26.274Z,100946.95
2018-03-21T02:33:55.570Z,100948.23
2018-03-21T02:36:24.782Z,100946.73
2018-03-21T02:38:54.542Z,100953.50
2018-03-21T02:41:23.851Z,100951.33
2018-03-21T02:43:53.067Z,100956.73
2018-03-21T02:46:22.562Z,100963.73
2018-03-21T02:48:51.820Z,100961.06
2018-03-21T02:51:20.984Z,100965.87
2018-03-21T02:53:50.187Z,100967.48
2018-03-21T02:56:20.230Z,100968.05
2018-03-21T02:58:49.410Z,100970.97
2018-03-21T03:01:18.614Z,100979.79
2018-03-21T03:03:48.725Z,100978.92
2018-03-21T03:06:17.828Z,100986.56
2018-03-21T03:08:47.023Z,100988.11
2018-03-21T03:11:16.280Z,100984.44
2018-03-21T03:13:45.506Z,100981.56
2018-03-21T03:16:14.816Z,100984.88
2018-03-21T03:18:44.052Z,100990.44
2018-03-21T03:21:13.264Z,100990.08
2018-03-21T03:23:42.472Z,100990.08
2018-03-21T03:26:11.785Z,100993.14
2018-03-21T03:28:40.974Z,101001.18
2018-03-21T03:31:10.174Z,101000.28
2018-03-21T03:33:39.452Z,101000.55
2018-03-21T03:36:08.674Z,101007.17
2018-03-21T03:38:37.878Z,101005.64
2018-03-21T03:41:07.154Z,101013.23
2018-03-21T03:43:36.356Z,101011.77
2018-03-21T03:46:05.565Z,101013.82
2018-03-21T03:48:35.059Z,101019.69
2018-03-21T03:51:04.263Z,101019.81
2018-03-21T03:53:33.473Z,101021.94
2018-03-21T03:56:02.761Z,101017.92
2018-03-21T03:58:31.955Z,101012.95
2018-03-21T04:01:01.160Z,101019.33
2018-03-21T04:03:31.006Z,101010.97
2018-03-21T04:06:00.407Z,101013.48
2018-03-21T04:08:29.601Z,101005.99
2018-03-21T04:10:59.825Z,101005.72
2018-03-21T04:13:29.029Z,101011.79
2018-03-21T04:15:58.220Z,101012.02
2018-03-21T04:18:28.186Z,101010.55
2018-03-21T04:20:57.287Z,101016.40
2018-03-21T04:23:26.490Z,101016.87
2018-03-21T04:25:55.761Z,101015.48
2018-03-21T04:28:24.960Z,101021.17
2018-03-21T04:30:54.144Z,101018.70
2018-03-21T04:33:23.448Z,101022.58
2018-03-21T04:35:52.649Z,101025.61
2018-03-21T04:38:22.797Z,101025.34
2018-03-21T04:40:52.815Z,101027.94
2018-03-21T04:43:21.999Z,101023.52
2018-03-21T04:45:51.089Z,101023.99
2018-03-21T04:48:21.050Z,101028.81
2018-03-21T04:50:51.255Z,101024.59
2018-03-21T04:53:20.585Z,101023.73
2018-03-21T04:55:49.756Z,101019.53
2018-03-21T04:58:18.585Z,101021.62
2018-03-21T05:00:47.851Z,101029.87
2018-03-21T05:03:17.290Z,101025.05
2018-03-21T05:05:46.480Z,101028.56
2018-03-21T05:08:16.487Z,101040.16
2018-03-21T05:10:45.727Z,101037.05
2018-03-21T05:13:14.924Z,101035.55
2018-03-21T05:15:44.234Z,101040.19
2018-03-21T05:18:13.415Z,101047.88
2018-03-21T05:20:42.624Z,101046.61
2018-03-21T05:23:11.946Z,101055.25
2018-03-21T05:25:42.924Z,101056.47
2018-03-21T05:28:12.628Z,101055.05
2018-03-21T05:30:41.854Z,101055.91
2018-03-21T05:33:11.031Z,101061.82
2018-03-21T05:35:40.284Z,101063.08
2018-03-21T05:38:09.481Z,101065.60
2018-03-21T05:40:38.815Z,101078.20
2018-03-21T05:43:08.582Z,101084.23
2018-03-21T05:45:37.776Z,101081.80
2018-03-21T05:48:07.816Z,101090.48
2018-03-21T05:50:37.129Z,101096.91
2018-03-21T05:53:06.320Z,101092.22
2018-03-21T05:55:35.647Z,101099.75
2018-03-21T05:58:04.934Z,101099.52
2018-03-21T06:00:34.144Z,101100.49
2018-03-21T06:03:03.374Z,101094.10
2018-03-21T06:05:32.673Z,101103.71
2018-03-21T06:08:01.930Z,101102.26
2018-03-21T06:10:31.133Z,101094.34
2018-03-21T06:13:00.392Z,101101.59
2018-03-21T06:15:29.578Z,101101.00
2018-03-21T06:17:58.800Z,101101.59
2018-03-21T06:20:28.087Z,101113.70
2018-03-21T06:22:57.303Z,101117.56
2018-03-21T06:25:26.541Z,101114.72
2018-03-21T06:27:55.791Z,101115.16
2018-03-21T06:30:25.013Z,101117.09
2018-03-21T06:32:54.234Z,101119.70
2018-03-21T06:35:23.526Z,101122.22
2018-03-21T06:37:54.976Z,101125.37
2018-03-21T06:40:24.376Z,101133.10
2018-03-21T06:42:53.660Z,101133.22
2018-03-21T06:45:22.865Z,101138.73
2018-03-21T06:47:52.121Z,101148.80
2018-03-21T06:50:21.306Z,101149.89
2018-03-21T06:52:50.498Z,101152.14
2018-03-21T06:55:19.816Z,101153.91
2018-03-21T06:57:49.000Z,101162.03
2018-03-21T07:00:18.231Z,101165.98
2018-03-21T07:02:48.433Z,101171.07
2018-03-21T07:05:18.450Z,101172.83
2018-03-21T07:07:47.642Z,101175.73
2018-03-21T07:10:16.918Z,101176.23
2018-03-21T07:12:46.110Z,101184.95
2018-03-21T07:15:26.324Z,101183.66
2018-03-21T07:17:55.523Z,101192.80
2018-03-21T07:20:24.731Z,101191.46
2018-03-21T07:22:54.004Z,101196.09
2018-03-21T07:25:23.224Z,101190.02
2018-03-21T07:27:52.421Z,101195.63
2018-03-21T07:30:22.371Z,101200.23
2018-03-21T07:32:51.591Z,101198.11
2018-03-21T07:35:20.788Z,101197.23
2018-03-21T07:37:50.740Z,101198.31
2018-03-21T07:40:20.358Z,101203.36
2018-03-21T07:42:49.623Z,101201.80
2018-03-21T07:45:18.939Z,101212.94
2018-03-21T07:47:48.148Z,101211.93
2018-03-21T07:50:17.438Z,101216.47
2018-03-21T07:52:46.635Z,101218.11
2018-03-21T07:55:15.837Z,101216.83
2018-03-21T07:57:45.174Z,101226.16
2018-03-21T08:00:14.386Z,101220.49
2018-03-21T08:02:43.598Z,101234.25
2018-03-21T08:05:12.865Z,101233.33
2018-03-21T08:07:42.069Z,101230.06
2018-03-21T08:10:11.280Z,101227.57
2018-03-21T08:12:40.530Z,101232.45
2018-03-21T08:15:09.736Z,101236.86
2018-03-21T08:17:38.952Z,101239.95
2018-03-21T08:20:08.248Z,101240.50
2018-03-21T08:22:37.479Z,101235.23
2018-03-21T08:25:06.694Z,101238.53
2018-03-21T08:27:36.296Z,101238.91
2018-03-21T08:30:05.676Z,101243.20
2018-03-21T08:32:34.925Z,101243.44
2018-03-21T08:35:04.218Z,101243.31
2018-03-21T08:37:33.424Z,101249.09
2018-03-21T08:40:02.637Z,101255.70
2018-03-21T08:42:31.887Z,101259.16
2018-03-21T08:45:01.103Z,101260.64
2018-03-21T08:47:30.398Z,101263.09
2018-03-21T08:49:59.660Z,101266.41
2018-03-21T08:52:28.840Z,101260.59
2018-03-21T08:54:58.071Z,101265.18
2018-03-21T08:57:27.500Z,101271.89
2018-03-21T08:59:56.724Z,101270.49
2018-03-21T09:02:25.958Z,101270.28
2018-03-21T09:04:55.297Z,101275.00
2018-03-21T09:07:25.249Z,101275.08
2018-03-21T09:09:54.618Z,101269.86
2018-03-21T09:12:23.898Z,101268.15
2018-03-21T09:14:53.091Z,101269.91
2018-03-21T09:17:22.307Z,101276.42
2018-03-21T09:19:51.628Z,101265.50
2018-03-21T09:22:20.840Z,101262.06
2018-03-21T09:24:50.029Z,101265.83
2018-03-21T09:27:19.291Z,101260.21
2018-03-21T09:29:48.510Z,101267.13
2018-03-21T09:32:17.772Z,101267.59
2018-03-21T09:34:47.029Z,101256.11
2018-03-21T09:37:16.240Z,101261.28
2018-03-21T09:39:45.449Z,101256.84
2018-03-21T09:42:14.767Z,101257.16
2018-03-21T09:44:43.959Z,101263.64
2018-03-21T09:47:13.183Z,101253.75
2018-03-21T09:49:42.491Z,101253.55
2018-03-21T09:52:11.873Z,101252.91
2018-03-21T09:54:44.682Z,101247.55
2018-03-21T09:57:13.978Z,101240.13
2018-03-21T09:59:43.066Z,101233.61
2018-03-21T10:02:12.339Z,101233.69
2018-03-21T10:04:41.567Z,101231.34
2018-03-21T10:07:10.761Z,101234.44
2018-03-21T10:09:40.049Z,101227.58
2018-03-21T10:12:09.242Z,101222.72
2018-03-21T10:14:38.440Z,101225.75
2018-03-21T10:17:07.687Z,101225.48
2018-03-21T10:19:36.891Z,101223.13
2018-03-21T10:22:06.097Z,101225.50
2018-03-21T10:24:35.359Z,101223.92
2018-03-21T10:27:04.552Z,101226.41
2018-03-21T10:29:33.747Z,101227.23
2018-03-21T10:32:02.998Z,101221.02
2018-03-21T10:34:32.274Z,101222.84
2018-03-21T10:37:01.651Z,101220.63
2018-03-21T10:39:30.920Z,101209.23
2018-03-21T10:42:00.092Z,101216.78
2018-03-21T10:44:29.186Z,101215.31
2018-03-21T10:46:58.443Z,101224.52
2018-03-21T10:49:28.489Z,101223.17
2018-03-21T10:51:57.792Z,101216.02
2018-03-21T10:54:27.036Z,101218.54
2018-03-21T10:56:56.221Z,101224.38
2018-03-21T10:59:25.405Z,101213.25
2018-03-21T11:02:00.008Z,101211.55
2018-03-21T11:04:29.230Z,101218.30
2018-03-21T11:06:58.406Z,101216.83
2018-03-21T11:09:27.734Z,101213.10
2018-03-21T11:11:57.005Z,101218.20
2018-03-21T11:14:26.369Z,101219.69
2018-03-21T11:16:55.652Z,101209.02
2018-03-21T11:19:24.842Z,101214.42
2018-03-21T11:21:54.097Z,101204.36
2018-03-21T11:24:23.347Z,101206.02
2018-03-21T11:26:52.579Z,101207.56
2018-03-21T11:29:21.807Z,101210.28
2018-03-21T11:31:51.070Z,101208.54
2018-03-21T11:34:20.303Z,101210.47
2018-03-21T11:36:49.512Z,101205.88
2018-03-21T11:39:18.788Z,101205.34
2018-03-21T11:41:47.970Z,101195.80
2018-03-21T11:44:17.180Z,101196.44
2018-03-21T11:46:46.468Z,101194.72
2018-03-21T11:49:15.983Z,101195.05
2018-03-21T11:51:45.180Z,101191.35
2018-03-21T11:54:14.525Z,101190.39
2018-03-21T11:56:43.729Z,101186.67
2018-03-21T11:59:12.918Z,101184.64
2018-03-21T12:01:42.160Z,101182.41
2018-03-21T12:04:11.394Z,101184.09
2018-03-21T12:06:40.580Z,101180.50
2018-03-21T12:09:09.583Z,101186.76
2018-03-21T12:11:39.114Z,101185.47
2018-03-21T12:14:08.315Z,101182.27
2018-03-21T12:16:43.085Z,101183.06
2018-03-21T12:19:12.275Z,101180.58
2018-03-21T12:21:41.536Z,101184.16
2018-03-21T12:24:10.730Z,101167.47
2018-03-21T12:26:39.920Z,101169.83
2018-03-21T12:29:09.279Z,101171.57
2018-03-21T12:31:38.466Z,101171.97
2018-03-21T12:34:07.688Z,101164.77
2018-03-21T12:36:36.927Z,101171.94
2018-03-21T12:39:05.580Z,101168.14
2018-03-21T12:41:34.770Z,101164.79
2018-03-21T12:44:04.030Z,101167.02
2018-03-21T12:46:32.951Z,101158.38
2018-03-21T12:49:02.204Z,101155.06
2018-03-21T12:51:31.457Z,101150.64
2018-03-21T12:54:00.661Z,101164.61
2018-03-21T12:56:29.963Z,101159.07
2018-03-21T12:58:59.231Z,101156.00
2018-03-21T13:01:29.106Z,101151.81
2018-03-21T13:03:58.219Z,101140.23
2018-03-21T13:06:27.465Z,101142.39
2018-03-21T13:08:57.286Z,101145.50
2018-03-21T13:11:26.697Z,101140.95
2018-03-21T13:13:55.948Z,101148.73
2018-03-21T13:16:25.158Z,101155.41
2018-03-21T13:18:54.739Z,101156.20
2018-03-21T13:21:24.083Z,101151.91
2018-03-21T13:23:53.307Z,101148.21
2018-03-21T13:26:22.512Z,101139.95
2018-03-21T13:28:51.792Z,101149.65
2018-03-21T13:31:20.978Z,101142.72
2018-03-21T13:33:50.213Z,101137.71
2018-03-21T13:36:19.482Z,101148.80
2018-03-21T13:38:48.710Z,101139.11
2018-03-21T13:41:18.031Z,101156.56
2018-03-21T13:43:47.914Z,101152.59
2018-03-21T13:46:17.102Z,101142.94
2018-03-21T13:48:47.811Z,101146.67
2018-03-21T13:51:17.265Z,101142.63
2018-03-21T13:53:46.443Z,101146.30
2018-03-21T13:56:15.626Z,101137.20
2018-03-21T13:58:44.988Z,101149.11
2018-03-21T14:01:14.210Z,101141.80
2018-03-21T14:03:43.427Z,101145.73
2018-03-21T14:06:13.073Z,101148.39
2018-03-21T14:08:42.306Z,101135.47
2018-03-21T14:11:11.520Z,101136.77
2018-03-21T14:13:40.767Z,101140.64
2018-03-21T14:16:09.968Z,101138.28
2018-03-21T14:18:39.165Z,101133.64
2018-03-21T14:21:08.434Z,101136.61
2018-03-21T14:23:37.652Z,101131.91
2018-03-21T14:26:06.872Z,101128.19
2018-03-21T14:28:36.118Z,101129.30
2018-03-21T14:31:05.352Z,101134.81
2018-03-21T14:33:34.538Z,101130.64
2018-03-21T14:36:03.890Z,101127.09
2018-03-21T14:38:33.089Z,101135.86
2018-03-21T14:41:02.264Z,101137.45
2018-03-21T14:43:32.367Z,101132.33
2018-03-21T14:46:01.552Z,101152.17
2018-03-21T14:48:30.761Z,101146.68
2018-03-21T14:51:00.028Z,101138.56
2018-03-21T14:53:29.240Z,101140.92
2018-03-21T14:55:58.430Z,101138.00
2018-03-21T14:58:28.061Z,101132.51
2018-03-21T15:00:57.344Z,101136.52
2018-03-21T15:03:26.549Z,101141.87
2018-03-21T15:05:55.805Z,101135.78
2018-03-21T15:08:24.977Z,101132.27
2018-03-21T15:10:54.401Z,101134.61
2018-03-21T15:13:23.685Z,101136.28
2018-03-21T15:15:53.477Z,101130.27
2018-03-21T15:18:22.696Z,101129.89
2018-03-21T15:20:52.016Z,101127.61
2018-03-21T15:23:21.239Z,101122.89
2018-03-21T15:25:50.444Z,101130.45
2018-03-21T15:28:19.713Z,101125.08
2018-03-21T15:30:48.889Z,101119.61
2018-03-21T15:33:18.081Z,101122.88
2018-03-21T15:35:47.442Z,101120.06
2018-03-21T15:38:16.643Z,101116.35
2018-03-21T15:40:45.866Z,101111.82
2018-03-21T15:43:15.128Z,101110.70
2018-03-21T15:45:44.320Z,101103.53
2018-03-21T15:48:13.522Z,101104.23
2018-03-21T15:50:42.800Z,101110.97
2018-03-21T15:53:12.023Z,101113.33
2018-03-21T15:55:41.240Z,101111.77
2018-03-21T15:58:10.492Z,101116.25
2018-03-21T16:00:39.705Z,101105.22
2018-03-21T16:03:09.015Z,101105.03
2018-03-21T16:05:38.279Z,101112.91
2018-03-21T16:08:07.528Z,101117.84
2018-03-21T16:10:36.730Z,101109.62
2018-03-21T16:13:06.020Z,101120.39
2018-03-21T16:15:35.275Z,101119.14
2018-03-21T16:18:04.538Z,101122.83
2018-03-21T16:20:33.867Z,101118.05
2018-03-21T16:23:03.077Z,101119.03
2018-03-21T16:25:32.313Z,101112.17
2018-03-21T16:28:01.589Z,101117.72
2018-03-21T16:30:30.820Z,101116.67
2018-03-21T16:33:00.057Z,101116.89
2018-03-21T16:35:29.372Z,101113.44
2018-03-21T16:37:58.584Z,101116.01
2018-03-21T16:40:27.814Z,101115.30
2018-03-21T16:42:56.967Z,101106.23
2018-03-21T16:45:26.188Z,101114.09
2018-03-21T16:47:55.405Z,101111.47
2018-03-21T16:50:24.674Z,101115.78
2018-03-21T16:52:53.878Z,101116.80
2018-03-21T16:55:23.119Z,101117.86
2018-03-21T16:57:52.388Z,101116.38
2018-03-21T17:00:21.639Z,101118.03
2018-03-21T17:02:50.919Z,101116.22
2018-03-21T17:05:20.334Z,101120.11
2018-03-21T17:07:49.604Z,101124.45
2018-03-21T17:10:18.927Z,101123.07
2018-03-21T17:12:48.369Z,101120.78
2018-03-21T17:15:17.613Z,101114.61
2018-03-21T17:17:46.983Z,101120.05
2018-03-21T17:20:16.080Z,101125.13
2018-03-21T17:22:45.246Z,101131.13
2018-03-21T17:25:14.232Z,101131.61
2018-03-21T17:27:43.224Z,101132.22
2018-03-21T17:30:12.175Z,101129.36
2018-03-21T17:32:41.152Z,101128.91
2018-03-21T17:35:10.220Z,101130.70
2018-03-21T17:37:39.165Z,101132.16
2018-03-21T17:40:08.321Z,101129.69
2018-03-21T17:42:37.292Z,101128.84
2018-03-21T17:45:06.351Z,101121.14
2018-03-21T17:47:35.460Z,101117.55
2018-03-21T17:50:04.476Z,101111.78
2018-03-21T17:52:33.372Z,101110.05
2018-03-21T17:55:02.379Z,101115.55
2018-03-21T17:57:31.324Z,101119.25
2018-03-21T18:00:00.278Z,101116.13
2018-03-21T18:02:29.337Z,101121.67
2018-03-21T18:04:58.337Z,101123.27
2018-03-21T18:07:27.310Z,101126.25
2018-03-21T18:09:56.334Z,101126.20
2018-03-21T18:12:25.384Z,101122.82
2018-03-21T18:14:54.359Z,101124.86
2018-03-21T18:17:23.374Z,101131.95
2018-03-21T18:19:52.336Z,101126.05
2018-03-21T18:22:21.666Z,101131.53
2018-03-21T18:24:51.104Z,101133.39
2018-03-21T18:27:20.189Z,101135.31
2018-03-21T18:29:49.264Z,101129.30
2018-03-21T18:32:18.546Z,101136.72
2018-03-21T18:34:47.640Z,101139.05
2018-03-21T18:37:16.554Z,101140.83
2018-03-21T18:39:45.625Z,101137.42
2018-03-21T18:42:14.911Z,101140.41
2018-03-21T18:44:43.908Z,101141.30
2018-03-21T18:47:13.534Z,101137.45
2018-03-21T18:49:42.779Z,101147.77
2018-03-21T18:52:11.996Z,101142.68
2018-03-21T18:54:41.312Z,101134.56
2018-03-21T18:57:10.648Z,101142.34
2018-03-21T18:59:39.948Z,101141.02
2018-03-21T19:02:09.288Z,101147.90
2018-03-21T19:04:38.632Z,101145.78
2018-03-21T19:07:07.913Z,101142.72
2018-03-21T19:09:37.664Z,101141.51
2018-03-21T19:12:08.387Z,101141.69
2018-03-21T19:14:39.352Z,101150.25
2018-03-21T19:17:10.340Z,101146.88
2018-03-21T19:19:42.472Z,101149.81
2018-03-21T19:22:12.940Z,101149.48
2018-03-21T19:24:43.468Z,101153.69
2018-03-21T19:27:15.847Z,101145.30
2018-03-21T19:29:45.748Z,101143.10
2018-03-21T19:32:16.442Z,101148.78
2018-03-21T19:34:47.508Z,101147.45
2018-03-21T19:37:18.682Z,101145.39
2018-03-21T19:39:49.334Z,101149.20
2018-03-21T19:42:20.372Z,101145.81
2018-03-21T19:44:51.375Z,101150.20
2018-03-21T19:47:22.673Z,101148.94
2018-03-21T19:49:53.372Z,101135.57
2018-03-21T19:52:24.267Z,101140.39
2018-03-21T19:54:55.064Z,101139.92
2018-03-21T19:57:25.800Z,101141.70
2018-03-21T19:59:56.467Z,101144.87
2018-03-21T20:02:27.383Z,101151.55
2018-03-21T20:04:58.431Z,101147.80
2018-03-21T20:07:29.352Z,101147.52
2018-03-21T20:10:00.007Z,101141.81
2018-03-21T20:12:30.609Z,101143.66
2018-03-21T20:15:01.462Z,101143.44
2018-03-21T20:17:31.921Z,101136.98
2018-03-21T20:20:02.527Z,101144.12
2018-03-21T20:22:33.250Z,101132.22
2018-03-21T20:25:04.355Z,101138.80
2018-03-21T20:27:35.360Z,101139.73
2018-03-21T20:30:06.513Z,101135.58
2018-03-21T20:32:36.647Z,101131.27
2018-03-21T20:35:07.480Z,101136.63
2018-03-21T20:37:38.382Z,101121.44
2018-03-21T20:40:09.450Z,101118.34
2018-03-21T20:42:40.312Z,101113.86
2018-03-21T20:45:11.513Z,101112.27
2018-03-21T20:47:42.522Z,101115.52
2018-03-21T20:50:14.081Z,101113.59
2018-03-21T20:52:44.896Z,101110.83
2018-03-21T20:55:15.455Z,101110.64
2018-03-21T20:57:46.246Z,101117.56
2018-03-21T21:00:16.940Z,101118.09
2018-03-21T21:02:47.622Z,101112.63
2018-03-21T21:05:18.441Z,101112.30
2018-03-21T21:07:49.368Z,101114.14
2018-03-21T21:10:21.010Z,101109.02
2018-03-21T21:12:51.861Z,101109.16
2018-03-21T21:15:22.783Z,101098.03
2018-03-21T21:17:53.338Z,101092.08
2018-03-21T21:20:24.884Z,101089.48
2018-03-21T21:22:55.381Z,101096.91
2018-03-21T21:25:26.252Z,101099.68
2018-03-21T21:27:56.866Z,101097.05
2018-03-21T21:30:28.775Z,101094.59
2018-03-21T21:32:58.893Z,101093.91
2018-03-21T21:35:29.657Z,101096.08
2018-03-21T21:38:00.413Z,101096.77
2018-03-21T21:40:30.949Z,101098.44
2018-03-21T21:43:01.368Z,101095.50
2018-03-21T21:45:32.432Z,101092.00
2018-03-21T21:48:02.813Z,101089.84
2018-03-21T21:50:33.690Z,101084.37
2018-03-21T21:53:04.345Z,101087.84
2018-03-21T21:55:35.328Z,101081.91
2018-03-21T21:58:06.371Z,101079.28
2018-03-21T22:00:37.236Z,101081.11
2018-03-21T22:03:08.176Z,101076.67
2018-03-21T22:05:39.201Z,101074.89
2018-03-21T22:08:10.154Z,101074.89
2018-03-21T22:10:41.223Z,101073.73
2018-03-21T22:13:12.197Z,101071.59
2018-03-21T22:15:43.211Z,101069.38
2018-03-21T22:18:14.155Z,101078.27
2018-03-21T22:20:45.156Z,101070.09
2018-03-21T22:23:16.185Z,101076.08
2018-03-21T22:25:47.195Z,101070.13
2018-03-21T22:28:18.111Z,101070.21
2018-03-21T22:30:49.144Z,101066.05
2018-03-21T22:33:20.305Z,101067.79
2018-03-21T22:35:51.372Z,101063.58
2018-03-21T22:38:22.744Z,101058.98
2018-03-21T22:40:52.477Z,101063.58
2018-03-21T22:43:23.288Z,101066.60
2018-03-21T22:45:55.527Z,101062.92
2018-03-21T22:48:25.591Z,101063.30
2018-03-21T22:50:56.351Z,101064.27
2018-03-21T22:53:27.324Z,101064.02
2018-03-21T22:55:58.343Z,101057.98
2018-03-21T22:58:29.306Z,101054.97
2018-03-21T23:01:00.307Z,101053.72
2018-03-21T23:03:31.317Z,101057.20
2018-03-21T23:06:02.358Z,101050.81
2018-03-21T23:08:32.913Z,101045.21
2018-03-21T23:11:03.883Z,101052.38
2018-03-21T23:13:34.462Z,101048.00
2018-03-21T23:16:05.403Z,101048.03
2018-03-21T23:18:36.251Z,101039.66
2018-03-21T23:21:06.900Z,101038.59
2018-03-21T23:23:38.518Z,101032.11
2018-03-21T23:26:09.284Z,101030.91
2018-03-21T23:28:40.244Z,101034.86
2018-03-21T23:31:11.780Z,101033.11
2018-03-21T23:33:42.300Z,101023.17
2018-03-21T23:36:13.343Z,101020.95
2018-03-21T23:38:44.216Z,101020.09
2018-03-21T23:41:15.223Z,101013.19
2018-03-21T23:43:46.175Z,101014.48
2018-03-21T23:46:17.310Z,101001.84
2018-03-21T23:48:48.207Z,101003.23
2018-03-21T23:51:19.242Z,100998.46
2018-03-21T23:53:50.188Z,100997.16
2018-03-21T23:56:21.603Z,100987.56
2018-03-21T23:58:51.889Z,100986.64
